createdAt,value
2018-09-14T00:02:50.293Z,5.60
2018-09-14T00:07:54.022Z,5.57
2018-09-14T00:12:57.744Z,5.60
2018-09-14T00:18:01.376Z,5.70
2018-09-14T00:23:06.320Z,5.63
2018-09-14T00:28:12.133Z,5.93
2018-09-14T00:33:16.542Z,5.50
2018-09-14T00:38:20.140Z,5.90
2018-09-14T00:43:23.800Z,5.70
2018-09-14T00:48:27.923Z,5.90
2018-09-14T00:53:31.795Z,5.83
2018-09-14T00:58:35.436Z,6.20
2018-09-14T01:03:39.860Z,5.60
2018-09-14T01:08:43.577Z,5.60
2018-09-14T01:13:47.499Z,5.90
2018-09-14T01:18:51.128Z,6.00
2018-09-14T01:23:54.760Z,6.10
2018-09-14T01:28:58.599Z,5.50
2018-09-14T01:34:02.505Z,6.07
2018-09-14T01:39:09.371Z,6.13
2018-09-14T01:44:13.063Z,5.57
2018-09-14T01:49:16.676Z,6.27
2018-09-14T01:54:21.180Z,7.77
2018-09-14T01:59:25.832Z,7.90
2018-09-14T02:04:29.487Z,7.97
2018-09-14T02:09:35.282Z,7.73
2018-09-14T02:14:38.979Z,8.00
2018-09-14T02:19:42.563Z,9.43
2018-09-14T02:24:46.416Z,8.77
2018-09-14T02:29:50.304Z,9.10
2018-09-14T02:34:53.883Z,9.30
2018-09-14T02:39:57.517Z,7.50
2018-09-14T02:45:01.452Z,7.23
2018-09-14T02:50:05.493Z,7.60
2018-09-14T02:55:09.975Z,7.77
2018-09-14T03:00:13.709Z,7.60
2018-09-14T03:05:17.389Z,8.00
2018-09-14T03:10:20.968Z,7.70
2018-09-14T03:15:24.575Z,8.33
2018-09-14T03:20:28.203Z,7.70
2018-09-14T03:25:31.829Z,8.17
2018-09-14T03:30:35.825Z,7.87
2018-09-14T03:35:40.169Z,8.20
2018-09-14T03:40:44.065Z,8.97
2018-09-14T03:45:47.706Z,8.27
2018-09-14T03:50:51.288Z,8.33
2018-09-14T03:55:54.957Z,8.70
2018-09-14T04:00:58.539Z,8.17
2018-09-14T04:06:02.144Z,7.60
2018-09-14T04:11:05.766Z,8.80
2018-09-14T04:16:09.323Z,8.20
2018-09-14T04:21:14.619Z,8.33
2018-09-14T04:26:18.351Z,8.93
2018-09-14T04:31:22.271Z,8.20
2018-09-14T04:36:25.925Z,8.97
2018-09-14T04:41:29.659Z,8.80
2018-09-14T04:46:33.271Z,9.47
2018-09-14T04:51:37.203Z,8.97
2018-09-14T04:56:40.795Z,9.30
2018-09-14T05:01:44.492Z,9.67
2018-09-14T05:06:48.833Z,9.73
2018-09-14T05:11:52.475Z,9.50
2018-09-14T05:16:56.263Z,8.97
2018-09-14T05:21:59.838Z,8.50
2018-09-14T05:27:03.395Z,7.43
2018-09-14T05:32:07.038Z,8.50
2018-09-14T05:37:10.644Z,8.10
2018-09-14T05:42:14.241Z,8.40
2018-09-14T05:47:17.839Z,9.67
2018-09-14T05:52:21.496Z,7.90
2018-09-14T05:57:27.357Z,7.80
2018-09-14T06:02:31.014Z,7.77
2018-09-14T06:07:34.785Z,7.70
2018-09-14T06:12:39.969Z,8.37
2018-09-14T06:17:43.568Z,7.10
2018-09-14T06:22:47.185Z,7.80
2018-09-14T06:27:50.736Z,7.90
2018-09-14T06:32:54.355Z,8.57
2018-09-14T06:37:57.987Z,7.73
2018-09-14T06:43:01.583Z,7.90
2018-09-14T06:48:05.648Z,8.00
2018-09-14T06:53:31.519Z,8.57
2018-09-14T06:58:35.199Z,7.60
2018-09-14T07:03:39.455Z,7.63
2018-09-14T07:08:43.082Z,8.10
2018-09-14T07:13:47.119Z,7.50
2018-09-14T07:18:51.378Z,7.67
2018-09-14T07:23:54.996Z,7.63
2018-09-14T07:29:00.612Z,7.13
2018-09-14T07:34:04.168Z,7.10
2018-09-14T07:39:09.371Z,7.43
2018-09-14T07:44:13.025Z,7.93
2018-09-14T07:49:16.603Z,7.13
2018-09-14T07:54:20.215Z,6.67
2018-09-14T07:59:27.482Z,6.50
2018-09-14T08:04:31.335Z,6.00
2018-09-14T08:09:34.948Z,6.67
2018-09-14T08:14:38.988Z,5.90
2018-09-14T08:19:44.512Z,5.90
2018-09-14T08:24:48.108Z,5.50
2018-09-14T08:29:53.360Z,5.30
2018-09-14T08:34:57.049Z,5.37
2018-09-14T08:40:00.737Z,5.30
2018-09-14T08:45:04.632Z,4.30
2018-09-14T08:50:08.275Z,4.77
2018-09-14T08:55:11.948Z,4.70
2018-09-14T09:00:18.213Z,3.97
2018-09-14T09:05:22.240Z,5.20
2018-09-14T09:10:25.905Z,4.50
2018-09-14T09:15:29.549Z,4.77
2018-09-14T09:20:33.516Z,5.80
2018-09-14T09:25:37.247Z,5.87
2018-09-14T09:30:40.832Z,5.90
2018-09-14T09:35:45.463Z,6.00
2018-09-14T09:40:49.163Z,5.10
2018-09-14T09:45:52.965Z,5.20
2018-09-14T09:50:56.728Z,4.50
2018-09-14T09:56:00.445Z,4.50
2018-09-14T10:01:09.686Z,4.83
2018-09-14T10:06:18.726Z,4.60
2018-09-14T10:11:22.776Z,4.10
2018-09-14T10:16:26.457Z,4.40
2018-09-14T10:21:30.144Z,4.03
2018-09-14T10:26:35.246Z,4.23
2018-09-14T10:31:39.257Z,3.67
2018-09-14T10:36:43.715Z,4.97
2018-09-14T10:41:47.723Z,3.50
2018-09-14T10:46:51.712Z,3.63
2018-09-14T10:51:55.268Z,3.00
2018-09-14T10:57:00.085Z,3.60
2018-09-14T11:02:03.668Z,3.23
2018-09-14T11:07:07.423Z,3.17
2018-09-14T11:12:11.357Z,4.17
2018-09-14T11:17:15.047Z,3.20
2018-09-14T11:22:19.064Z,3.60
2018-09-14T11:27:23.080Z,3.27
2018-09-14T11:32:28.145Z,4.40
2018-09-14T11:37:31.748Z,3.23
2018-09-14T11:42:35.290Z,3.20
2018-09-14T11:47:38.915Z,3.30
2018-09-14T11:52:42.594Z,3.80
2018-09-14T11:57:45.989Z,3.63
2018-09-14T12:02:50.985Z,3.60
2018-09-14T12:07:54.284Z,3.50
2018-09-14T12:12:57.988Z,3.20
2018-09-14T12:18:01.651Z,3.30
2018-09-14T12:23:05.335Z,3.00
2018-09-14T12:28:10.207Z,3.53
2018-09-14T12:33:16.304Z,3.37
2018-09-14T12:38:20.084Z,2.80
2018-09-14T12:43:25.892Z,2.40
2018-09-14T12:48:29.543Z,2.90
2018-09-14T12:53:33.270Z,3.50
2018-09-14T12:58:36.991Z,2.60
2018-09-14T13:03:40.657Z,2.63
2018-09-14T13:08:44.596Z,2.97
2018-09-14T13:13:48.995Z,2.57
2018-09-14T13:18:52.635Z,2.43
2018-09-14T13:23:56.632Z,3.30
2018-09-14T13:29:01.283Z,2.10
2018-09-14T13:34:40.285Z,2.10
2018-09-14T13:45:18.430Z,2.37
2018-09-14T13:50:22.803Z,2.50
2018-09-14T13:55:26.143Z,3.13
2018-09-14T14:00:30.552Z,2.10
2018-09-14T14:05:34.352Z,2.10
2018-09-14T14:10:38.381Z,2.23
2018-09-14T14:15:42.023Z,2.40
2018-09-14T14:20:45.953Z,2.53
2018-09-14T14:25:49.656Z,2.27
2018-09-14T14:30:53.794Z,1.83
2018-09-14T14:41:17.838Z,2.20
2018-09-14T14:46:25.489Z,2.43
2018-09-14T14:51:34.174Z,2.53
2018-09-14T14:56:43.678Z,2.00
2018-09-14T15:02:03.739Z,2.40
2018-09-14T15:07:13.559Z,3.13
2018-09-14T15:12:17.367Z,2.80
2018-09-14T15:17:20.939Z,2.40
2018-09-14T15:22:24.562Z,2.60
2018-09-14T15:27:28.941Z,2.57
2018-09-14T15:32:32.591Z,3.03
2018-09-14T15:37:36.212Z,2.97
2018-09-14T15:42:39.832Z,4.07
2018-09-14T15:47:48.594Z,3.33
2018-09-14T15:52:53.687Z,3.77
2018-09-14T15:57:57.444Z,3.43
2018-09-14T16:03:01.803Z,3.23
2018-09-14T16:08:05.810Z,3.50
2018-09-14T16:13:09.520Z,3.30
2018-09-14T16:18:13.126Z,4.07
2018-09-14T16:23:18.657Z,3.30
2018-09-14T16:28:23.419Z,3.43
2018-09-14T16:33:29.173Z,3.27
2018-09-14T16:38:32.911Z,3.13
2018-09-14T16:43:37.578Z,3.10
2018-09-14T16:48:41.213Z,3.70
2018-09-14T16:53:45.201Z,3.50
2018-09-14T16:58:50.337Z,3.70
2018-09-14T17:03:54.031Z,3.10
2018-09-14T17:08:58.415Z,3.50
2018-09-14T17:14:02.225Z,3.23
2018-09-14T17:19:06.129Z,3.13
2018-09-14T17:24:09.723Z,3.23
2018-09-14T17:29:13.374Z,4.23
2018-09-14T17:34:17.103Z,3.47
2018-09-14T17:39:20.751Z,3.60
2018-09-14T17:44:24.382Z,3.37
2018-09-14T17:49:27.981Z,3.30
2018-09-14T17:54:31.916Z,3.10
2018-09-14T17:59:35.535Z,3.23
2018-09-14T18:04:39.177Z,3.40
2018-09-14T18:09:42.923Z,3.23
2018-09-14T18:14:46.657Z,3.30
2018-09-14T18:19:50.279Z,2.83
2018-09-14T18:24:53.980Z,4.03
2018-09-14T18:29:57.986Z,5.10
2018-09-14T18:35:01.822Z,4.30
2018-09-14T18:40:05.998Z,4.20
2018-09-14T18:45:10.205Z,4.43
2018-09-14T18:50:14.666Z,4.60
2018-09-14T18:55:18.426Z,4.83
2018-09-14T19:00:22.036Z,8.13
2018-09-14T19:05:25.819Z,5.50
2018-09-14T19:10:29.495Z,5.07
2018-09-14T19:15:33.129Z,6.27
2018-09-14T19:20:36.936Z,5.70
2018-09-14T19:25:40.512Z,6.07
2018-09-14T19:30:44.747Z,4.60
2018-09-14T19:35:48.602Z,5.60
2018-09-14T19:40:52.429Z,4.90
2018-09-14T19:45:56.352Z,5.53
2018-09-14T19:51:00.845Z,5.20
2018-09-14T19:56:04.553Z,5.20
2018-09-14T20:01:08.224Z,5.20
2018-09-14T20:06:12.035Z,5.37
2018-09-14T20:11:16.125Z,5.57
2018-09-14T20:16:20.156Z,5.10
2018-09-14T20:21:23.969Z,4.63
2018-09-14T20:26:27.803Z,6.17
2018-09-14T20:31:31.665Z,6.40
2018-09-14T20:36:35.364Z,5.03
2018-09-14T20:41:39.127Z,4.93
2018-09-14T20:46:42.920Z,5.40
2018-09-14T20:51:46.589Z,5.37
2018-09-14T20:56:52.324Z,4.60
2018-09-14T21:01:56.183Z,5.00
2018-09-14T21:07:00.167Z,5.30
2018-09-14T21:12:04.048Z,6.00
2018-09-14T21:17:07.651Z,5.80
2018-09-14T21:22:11.849Z,5.90
2018-09-14T21:27:15.464Z,5.70
2018-09-14T21:32:20.161Z,6.10
2018-09-14T21:37:23.773Z,5.87
2018-09-14T21:42:28.054Z,5.13
2018-09-14T21:47:32.191Z,6.27
2018-09-14T21:52:35.793Z,5.63
2018-09-14T21:57:40.328Z,5.83
2018-09-14T22:02:43.922Z,5.90
2018-09-14T22:07:47.613Z,6.40
2018-09-14T22:12:51.391Z,6.60
2018-09-14T22:17:55.090Z,6.10
2018-09-14T22:22:58.668Z,5.73
2018-09-14T22:28:02.509Z,5.83
2018-09-14T22:33:06.325Z,5.23
2018-09-14T22:38:10.425Z,5.30
2018-09-14T22:43:14.693Z,5.60
2018-09-14T22:48:18.293Z,6.10
2018-09-14T22:53:21.936Z,5.87
2018-09-14T22:58:25.886Z,5.53
2018-09-14T23:03:29.625Z,5.90
2018-09-14T23:08:33.237Z,5.83
2018-09-14T23:13:36.850Z,6.70
2018-09-14T23:18:40.477Z,6.10
2018-09-14T23:23:44.028Z,6.77
2018-09-14T23:28:47.649Z,7.17
2018-09-14T23:33:53.142Z,7.23
2018-09-14T23:38:57.323Z,6.40
2018-09-14T23:44:01.633Z,6.50
2018-09-14T23:49:05.287Z,6.63
2018-09-14T23:54:09.738Z,6.50
2018-09-14T23:59:13.314Z,7.73
